sensor_id;sensor_type;location;lat;lon;timestamp;temperature;humidity
1123;DHT22;548;48.778;9.252;2023-07-31T00:00:04;16.90;99.90
1123;DHT22;548;48.778;9.252;2023-07-31T00:02:30;16.90;99.90
1123;DHT22;548;48.778;9.252;2023-07-31T00:04:57;16.80;99.90
1123;DHT22;548;48.778;9.252;2023-07-31T00:07:25;16.80;99.90
1123;DHT22;548;48.778;9.252;2023-07-31T00:09:52;16.80;99.90
1123;DHT22;548;48.778;9.252;2023-07-31T00:12:19;16.80;99.90
1123;DHT22;548;48.778;9.252;2023-07-31T00:14:46;16.80;99.90
1123;DHT22;548;48.778;9.252;2023-07-31T00:17:13;16.70;99.90
1123;DHT22;548;48.778;9.252;2023-07-31T00:19:40;16.60;99.90
1123;DHT22;548;48.778;9.252;2023-07-31T00:22:06;16.60;99.90
1123;DHT22;548;48.778;9.252;2023-07-31T00:24:34;16.60;99.90
1123;DHT22;548;48.778;9.252;2023-07-31T00:27:01;16.50;99.90
1123;DHT22;548;48.778;9.252;2023-07-31T00:29:28;16.60;99.90
1123;DHT22;548;48.778;9.252;2023-07-31T00:31:54;16.50;99.90
1123;DHT22;548;48.778;9.252;2023-07-31T00:34:21;16.50;99.90
1123;DHT22;548;48.778;9.252;2023-07-31T00:36:48;16.50;99.90
1123;DHT22;548;48.778;9.252;2023-07-31T00:39:14;16.50;99.90
1123;DHT22;548;48.778;9.252;2023-07-31T00:41:43;16.50;99.90
1123;DHT22;548;48.778;9.252;2023-07-31T00:44:10;16.40;99.90
1123;DHT22;548;48.778;9.252;2023-07-31T00:46:37;16.40;99.90
1123;DHT22;548;48.778;9.252;2023-07-31T00:49:04;16.30;99.90
1123;DHT22;548;48.778;9.252;2023-07-31T00:51:32;16.30;99.90
1123;DHT22;548;48.778;9.252;2023-07-31T00:53:58;16.40;99.90
1123;DHT22;548;48.778;9.252;2023-07-31T00:56:26;16.40;99.90
1123;DHT22;548;48.778;9.252;2023-07-31T00:58:55;16.40;99.90
1123;DHT22;548;48.778;9.252;2023-07-31T01:01:22;16.40;99.90
1123;DHT22;548;48.778;9.252;2023-07-31T01:03:49;16.40;99.90
1123;DHT22;548;48.778;9.252;2023-07-31T01:06:26;16.30;99.90
1123;DHT22;548;48.778;9.252;2023-07-31T01:09:00;16.30;99.90
1123;DHT22;548;48.778;9.252;2023-07-31T01:11:30;16.20;99.90
1123;DHT22;548;48.778;9.252;2023-07-31T01:13:58;16.30;99.90
1123;DHT22;548;48.778;9.252;2023-07-31T01:16:26;16.30;99.90
1123;DHT22;548;48.778;9.252;2023-07-31T01:18:52;16.30;99.90
1123;DHT22;548;48.778;9.252;2023-07-31T01:21:28;16.30;99.90
1123;DHT22;548;48.778;9.252;2023-07-31T01:24:20;16.30;99.90
1123;DHT22;548;48.778;9.252;2023-07-31T01:26:55;16.20;99.90
1123;DHT22;548;48.778;9.252;2023-07-31T01:29:28;16.30;99.90
1123;DHT22;548;48.778;9.252;2023-07-31T01:32:01;16.30;99.90
1123;DHT22;548;48.778;9.252;2023-07-31T01:34:29;16.40;99.90
1123;DHT22;548;48.778;9.252;2023-07-31T01:36:56;16.40;99.90
1123;DHT22;548;48.778;9.252;2023-07-31T01:39:23;16.40;99.90
1123;DHT22;548;48.778;9.252;2023-07-31T01:41:51;16.40;99.90
1123;DHT22;548;48.778;9.252;2023-07-31T01:44:18;16.30;99.90
1123;DHT22;548;48.778;9.252;2023-07-31T01:46:44;16.30;99.90
1123;DHT22;548;48.778;9.252;2023-07-31T01:49:11;16.20;99.90
1123;DHT22;548;48.778;9.252;2023-07-31T01:51:38;16.20;99.90
1123;DHT22;548;48.778;9.252;2023-07-31T01:54:04;16.10;99.90
1123;DHT22;548;48.778;9.252;2023-07-31T01:56:31;16.10;99.90
1123;DHT22;548;48.778;9.252;2023-07-31T01:58:59;16.00;99.90
1123;DHT22;548;48.778;9.252;2023-07-31T02:01:26;16.10;99.90
1123;DHT22;548;48.778;9.252;2023-07-31T02:03:53;16.10;99.90
1123;DHT22;548;48.778;9.252;2023-07-31T02:06:19;16.00;99.90
1123;DHT22;548;48.778;9.252;2023-07-31T02:08:46;16.00;99.90
1123;DHT22;548;48.778;9.252;2023-07-31T02:11:13;15.90;99.90
1123;DHT22;548;48.778;9.252;2023-07-31T02:13:39;15.90;99.90
1123;DHT22;548;48.778;9.252;2023-07-31T02:16:07;15.80;99.90
1123;DHT22;548;48.778;9.252;2023-07-31T02:18:34;15.70;99.90
1123;DHT22;548;48.778;9.252;2023-07-31T02:21:01;15.60;99.90
1123;DHT22;548;48.778;9.252;2023-07-31T02:23:27;15.60;99.90
1123;DHT22;548;48.778;9.252;2023-07-31T02:25:54;15.50;99.90
1123;DHT22;548;48.778;9.252;2023-07-31T02:28:21;15.50;99.90
1123;DHT22;548;48.778;9.252;2023-07-31T02:30:47;15.60;99.90
1123;DHT22;548;48.778;9.252;2023-07-31T02:33:17;15.60;99.90
1123;DHT22;548;48.778;9.252;2023-07-31T02:35:44;15.70;99.90
1123;DHT22;548;48.778;9.252;2023-07-31T02:38:11;15.70;99.90
1123;DHT22;548;48.778;9.252;2023-07-31T02:40:38;15.70;99.90
1123;DHT22;548;48.778;9.252;2023-07-31T02:43:05;15.80;99.90
1123;DHT22;548;48.778;9.252;2023-07-31T02:45:32;15.80;99.90
1123;DHT22;548;48.778;9.252;2023-07-31T02:47:58;15.80;99.90
1123;DHT22;548;48.778;9.252;2023-07-31T02:50:26;15.80;99.90
1123;DHT22;548;48.778;9.252;2023-07-31T02:52:54;15.90;99.90
1123;DHT22;548;48.778;9.252;2023-07-31T02:55:20;15.90;99.90
1123;DHT22;548;48.778;9.252;2023-07-31T02:57:47;15.90;99.90
1123;DHT22;548;48.778;9.252;2023-07-31T03:00:14;15.90;99.90
1123;DHT22;548;48.778;9.252;2023-07-31T03:02:40;15.90;99.90
1123;DHT22;548;48.778;9.252;2023-07-31T03:05:08;15.90;99.90
1123;DHT22;548;48.778;9.252;2023-07-31T03:07:36;15.90;99.90
1123;DHT22;548;48.778;9.252;2023-07-31T03:10:02;15.80;99.90
1123;DHT22;548;48.778;9.252;2023-07-31T03:12:29;15.80;99.90
1123;DHT22;548;48.778;9.252;2023-07-31T03:14:56;15.80;99.90
1123;DHT22;548;48.778;9.252;2023-07-31T03:17:22;15.80;99.90
1123;DHT22;548;48.778;9.252;2023-07-31T03:19:49;15.80;99.90
1123;DHT22;548;48.778;9.252;2023-07-31T03:22:16;15.80;99.90
1123;DHT22;548;48.778;9.252;2023-07-31T03:24:44;15.80;99.90
1123;DHT22;548;48.778;9.252;2023-07-31T03:27:11;15.80;99.90
1123;DHT22;548;48.778;9.252;2023-07-31T03:29:37;15.80;99.90
1123;DHT22;548;48.778;9.252;2023-07-31T03:32:05;15.80;99.90
1123;DHT22;548;48.778;9.252;2023-07-31T03:34:31;15.90;99.90
1123;DHT22;548;48.778;9.252;2023-07-31T03:36:58;15.90;99.90
1123;DHT22;548;48.778;9.252;2023-07-31T03:39:25;15.90;99.90
1123;DHT22;548;48.778;9.252;2023-07-31T03:41:53;15.80;99.90
1123;DHT22;548;48.778;9.252;2023-07-31T03:44:19;15.90;99.90
1123;DHT22;548;48.778;9.252;2023-07-31T03:46:46;15.80;99.90
1123;DHT22;548;48.778;9.252;2023-07-31T03:49:13;15.90;99.90
1123;DHT22;548;48.778;9.252;2023-07-31T03:51:40;15.90;99.90
1123;DHT22;548;48.778;9.252;2023-07-31T03:54:07;15.80;99.90
1123;DHT22;548;48.778;9.252;2023-07-31T03:56:34;15.80;99.90
1123;DHT22;548;48.778;9.252;2023-07-31T03:59:02;15.80;99.90
1123;DHT22;548;48.778;9.252;2023-07-31T04:01:28;15.90;99.90
1123;DHT22;548;48.778;9.252;2023-07-31T04:03:55;15.90;99.90
1123;DHT22;548;48.778;9.252;2023-07-31T04:06:22;15.90;99.90
1123;DHT22;548;48.778;9.252;2023-07-31T04:08:49;16.00;99.90
1123;DHT22;548;48.778;9.252;2023-07-31T04:11:15;16.10;99.90
1123;DHT22;548;48.778;9.252;2023-07-31T04:13:42;16.10;99.90
1123;DHT22;548;48.778;9.252;2023-07-31T04:16:10;16.20;99.90
1123;DHT22;548;48.778;9.252;2023-07-31T04:18:37;16.20;99.90
1123;DHT22;548;48.778;9.252;2023-07-31T04:21:04;16.20;99.90
1123;DHT22;548;48.778;9.252;2023-07-31T04:23:31;16.30;99.90
1123;DHT22;548;48.778;9.252;2023-07-31T04:25:57;16.40;99.90
1123;DHT22;548;48.778;9.252;2023-07-31T04:28:24;16.40;99.90
1123;DHT22;548;48.778;9.252;2023-07-31T04:30:51;16.50;99.90
1123;DHT22;548;48.778;9.252;2023-07-31T04:33:19;16.50;99.90
1123;DHT22;548;48.778;9.252;2023-07-31T04:35:50;16.60;99.90
1123;DHT22;548;48.778;9.252;2023-07-31T04:38:17;16.60;99.90
1123;DHT22;548;48.778;9.252;2023-07-31T04:40:44;16.70;99.90
1123;DHT22;548;48.778;9.252;2023-07-31T04:43:11;16.70;99.90
1123;DHT22;548;48.778;9.252;2023-07-31T04:45:37;16.70;99.90
1123;DHT22;548;48.778;9.252;2023-07-31T04:48:04;16.70;99.90
1123;DHT22;548;48.778;9.252;2023-07-31T04:50:32;16.70;99.90
1123;DHT22;548;48.778;9.252;2023-07-31T04:52:59;16.70;99.90
1123;DHT22;548;48.778;9.252;2023-07-31T04:55:26;16.70;99.90
1123;DHT22;548;48.778;9.252;2023-07-31T04:57:52;16.80;99.90
1123;DHT22;548;48.778;9.252;2023-07-31T05:00:19;16.80;99.90
1123;DHT22;548;48.778;9.252;2023-07-31T05:02:46;16.80;99.90
1123;DHT22;548;48.778;9.252;2023-07-31T05:05:13;16.90;99.90
1123;DHT22;548;48.778;9.252;2023-07-31T05:07:41;16.90;99.90
1123;DHT22;548;48.778;9.252;2023-07-31T05:10:08;16.80;99.90
1123;DHT22;548;48.778;9.252;2023-07-31T05:12:35;16.70;99.90
1123;DHT22;548;48.778;9.252;2023-07-31T05:15:02;16.70;99.90
1123;DHT22;548;48.778;9.252;2023-07-31T05:17:28;16.70;99.90
1123;DHT22;548;48.778;9.252;2023-07-31T05:19:55;16.80;99.90
1123;DHT22;548;48.778;9.252;2023-07-31T05:22:22;16.90;99.90
1123;DHT22;548;48.778;9.252;2023-07-31T05:24:50;16.80;99.90
1123;DHT22;548;48.778;9.252;2023-07-31T05:27:17;16.80;99.90
1123;DHT22;548;48.778;9.252;2023-07-31T05:29:44;16.80;99.90
1123;DHT22;548;48.778;9.252;2023-07-31T05:32:10;16.70;99.90
1123;DHT22;548;48.778;9.252;2023-07-31T05:34:37;16.70;99.90
1123;DHT22;548;48.778;9.252;2023-07-31T05:37:04;16.70;99.90
1123;DHT22;548;48.778;9.252;2023-07-31T05:39:32;16.80;99.90
1123;DHT22;548;48.778;9.252;2023-07-31T05:42:00;17.00;99.90
1123;DHT22;548;48.778;9.252;2023-07-31T05:44:27;17.20;99.90
1123;DHT22;548;48.778;9.252;2023-07-31T05:46:54;17.50;99.90
1123;DHT22;548;48.778;9.252;2023-07-31T05:49:20;17.70;99.90
1123;DHT22;548;48.778;9.252;2023-07-31T05:51:47;17.90;99.90
1123;DHT22;548;48.778;9.252;2023-07-31T05:54:14;18.10;99.90
1123;DHT22;548;48.778;9.252;2023-07-31T05:56:40;18.20;99.90
1123;DHT22;548;48.778;9.252;2023-07-31T05:59:11;18.60;99.90
1123;DHT22;548;48.778;9.252;2023-07-31T06:01:38;19.30;99.90
1123;DHT22;548;48.778;9.252;2023-07-31T06:04:05;19.50;99.90
1123;DHT22;548;48.778;9.252;2023-07-31T06:06:32;19.50;99.90
1123;DHT22;548;48.778;9.252;2023-07-31T06:08:58;19.50;99.90
1123;DHT22;548;48.778;9.252;2023-07-31T06:11:25;19.70;99.90
1123;DHT22;548;48.778;9.252;2023-07-31T06:13:52;19.80;99.90
1123;DHT22;548;48.778;9.252;2023-07-31T06:16:20;20.00;99.90
1123;DHT22;548;48.778;9.252;2023-07-31T06:18:47;20.10;99.90
1123;DHT22;548;48.778;9.252;2023-07-31T06:21:13;20.30;99.90
1123;DHT22;548;48.778;9.252;2023-07-31T06:23:40;20.40;99.90
1123;DHT22;548;48.778;9.252;2023-07-31T06:26:07;20.80;99.90
1123;DHT22;548;48.778;9.252;2023-07-31T06:28:34;21.00;99.90
1123;DHT22;548;48.778;9.252;2023-07-31T06:31:01;21.40;99.90
1123;DHT22;548;48.778;9.252;2023-07-31T06:33:29;21.40;99.90
1123;DHT22;548;48.778;9.252;2023-07-31T06:35:55;21.80;99.90
1123;DHT22;548;48.778;9.252;2023-07-31T06:38:25;21.90;99.90
1123;DHT22;548;48.778;9.252;2023-07-31T06:40:52;22.30;99.20
1123;DHT22;548;48.778;9.252;2023-07-31T06:43:18;22.30;98.90
1123;DHT22;548;48.778;9.252;2023-07-31T06:45:45;22.00;99.10
1123;DHT22;548;48.778;9.252;2023-07-31T06:48:14;22.00;99.30
1123;DHT22;548;48.778;9.252;2023-07-31T06:50:42;21.90;99.70
1123;DHT22;548;48.778;9.252;2023-07-31T06:53:08;22.60;98.60
1123;DHT22;548;48.778;9.252;2023-07-31T06:55:35;23.40;97.50
1123;DHT22;548;48.778;9.252;2023-07-31T06:58:02;24.10;96.40
1123;DHT22;548;48.778;9.252;2023-07-31T07:00:29;24.50;94.20
1123;DHT22;548;48.778;9.252;2023-07-31T07:02:56;24.90;93.60
1123;DHT22;548;48.778;9.252;2023-07-31T07:05:22;25.30;92.30
1123;DHT22;548;48.778;9.252;2023-07-31T07:07:51;25.20;92.30
1123;DHT22;548;48.778;9.252;2023-07-31T07:10:17;25.40;91.80
1123;DHT22;548;48.778;9.252;2023-07-31T07:12:44;25.10;91.70
1123;DHT22;548;48.778;9.252;2023-07-31T07:15:11;25.60;91.30
1123;DHT22;548;48.778;9.252;2023-07-31T07:17:38;25.50;91.10
1123;DHT22;548;48.778;9.252;2023-07-31T07:20:05;25.60;90.50
1123;DHT22;548;48.778;9.252;2023-07-31T07:22:33;26.20;90.10
1123;DHT22;548;48.778;9.252;2023-07-31T07:25:01;27.20;86.60
1123;DHT22;548;48.778;9.252;2023-07-31T07:27:28;27.50;84.30
1123;DHT22;548;48.778;9.252;2023-07-31T07:29:55;27.10;85.30
1123;DHT22;548;48.778;9.252;2023-07-31T07:32:21;27.00;84.90
1123;DHT22;548;48.778;9.252;2023-07-31T07:34:48;26.80;83.90
1123;DHT22;548;48.778;9.252;2023-07-31T07:37:15;26.80;84.80
1123;DHT22;548;48.778;9.252;2023-07-31T07:39:43;26.80;84.70
1123;DHT22;548;48.778;9.252;2023-07-31T07:42:11;26.40;84.90
1123;DHT22;548;48.778;9.252;2023-07-31T07:44:38;25.90;86.10
1123;DHT22;548;48.778;9.252;2023-07-31T07:47:05;25.60;87.60
1123;DHT22;548;48.778;9.252;2023-07-31T07:49:32;25.10;88.00
1123;DHT22;548;48.778;9.252;2023-07-31T07:51:59;24.80;90.00
1123;DHT22;548;48.778;9.252;2023-07-31T07:54:26;24.70;89.40
1123;DHT22;548;48.778;9.252;2023-07-31T07:56:53;24.80;90.40
1123;DHT22;548;48.778;9.252;2023-07-31T07:59:21;25.30;88.50
1123;DHT22;548;48.778;9.252;2023-07-31T08:01:48;25.60;87.00
1123;DHT22;548;48.778;9.252;2023-07-31T08:04:14;25.30;87.40
1123;DHT22;548;48.778;9.252;2023-07-31T08:06:41;25.30;87.60
1123;DHT22;548;48.778;9.252;2023-07-31T08:09:08;25.20;86.80
1123;DHT22;548;48.778;9.252;2023-07-31T08:11:35;25.10;87.60
1123;DHT22;548;48.778;9.252;2023-07-31T08:14:01;25.00;87.90
1123;DHT22;548;48.778;9.252;2023-07-31T08:16:29;24.70;88.60
1123;DHT22;548;48.778;9.252;2023-07-31T08:18:56;24.90;88.10
1123;DHT22;548;48.778;9.252;2023-07-31T08:21:23;25.50;86.50
1123;DHT22;548;48.778;9.252;2023-07-31T08:23:49;25.60;86.00
1123;DHT22;548;48.778;9.252;2023-07-31T08:26:16;25.80;85.20
1123;DHT22;548;48.778;9.252;2023-07-31T08:28:43;25.70;84.00
1123;DHT22;548;48.778;9.252;2023-07-31T08:31:10;26.00;84.00
1123;DHT22;548;48.778;9.252;2023-07-31T08:33:39;26.00;82.90
1123;DHT22;548;48.778;9.252;2023-07-31T08:36:06;27.00;79.80
1123;DHT22;548;48.778;9.252;2023-07-31T08:38:33;27.50;78.40
1123;DHT22;548;48.778;9.252;2023-07-31T08:41:00;28.50;75.80
1123;DHT22;548;48.778;9.252;2023-07-31T08:43:27;29.10;73.30
1123;DHT22;548;48.778;9.252;2023-07-31T08:45:54;29.00;72.30
1123;DHT22;548;48.778;9.252;2023-07-31T08:48:21;28.30;73.20
1123;DHT22;548;48.778;9.252;2023-07-31T08:50:50;27.90;74.20
1123;DHT22;548;48.778;9.252;2023-07-31T08:53:17;28.20;76.00
1123;DHT22;548;48.778;9.252;2023-07-31T08:55:44;28.90;73.30
1123;DHT22;548;48.778;9.252;2023-07-31T08:58:13;29.20;72.20
1123;DHT22;548;48.778;9.252;2023-07-31T09:00:41;29.50;71.30
1123;DHT22;548;48.778;9.252;2023-07-31T09:03:12;29.50;69.70
1123;DHT22;548;48.778;9.252;2023-07-31T09:05:42;29.40;70.20
1123;DHT22;548;48.778;9.252;2023-07-31T09:08:11;28.70;71.50
1123;DHT22;548;48.778;9.252;2023-07-31T09:10:40;28.70;72.80
1123;DHT22;548;48.778;9.252;2023-07-31T09:13:08;28.20;72.80
1123;DHT22;548;48.778;9.252;2023-07-31T09:15:35;27.50;74.90
1123;DHT22;548;48.778;9.252;2023-07-31T09:18:02;26.70;76.40
1123;DHT22;548;48.778;9.252;2023-07-31T09:20:30;26.50;77.70
1123;DHT22;548;48.778;9.252;2023-07-31T09:22:58;26.60;78.10
1123;DHT22;548;48.778;9.252;2023-07-31T09:25:32;27.80;75.30
1123;DHT22;548;48.778;9.252;2023-07-31T09:28:01;28.60;74.30
1123;DHT22;548;48.778;9.252;2023-07-31T09:30:28;28.60;71.90
1123;DHT22;548;48.778;9.252;2023-07-31T09:33:01;28.10;74.10
1123;DHT22;548;48.778;9.252;2023-07-31T09:35:30;28.80;72.80
1123;DHT22;548;48.778;9.252;2023-07-31T09:37:59;29.70;70.80
1123;DHT22;548;48.778;9.252;2023-07-31T09:40:28;30.50;69.40
1123;DHT22;548;48.778;9.252;2023-07-31T09:42:58;30.70;67.60
1123;DHT22;548;48.778;9.252;2023-07-31T09:45:25;30.50;65.50
1123;DHT22;548;48.778;9.252;2023-07-31T09:47:52;29.70;68.20
1123;DHT22;548;48.778;9.252;2023-07-31T09:50:21;28.70;70.70
1123;DHT22;548;48.778;9.252;2023-07-31T09:52:48;27.90;73.30
1123;DHT22;548;48.778;9.252;2023-07-31T09:55:14;27.30;74.00
1123;DHT22;548;48.778;9.252;2023-07-31T09:57:44;26.90;74.90
1123;DHT22;548;48.778;9.252;2023-07-31T10:00:14;26.80;75.70
1123;DHT22;548;48.778;9.252;2023-07-31T10:02:41;26.60;77.60
1123;DHT22;548;48.778;9.252;2023-07-31T10:05:08;27.30;75.90
1123;DHT22;548;48.778;9.252;2023-07-31T10:07:37;28.00;74.50
1123;DHT22;548;48.778;9.252;2023-07-31T10:10:06;28.00;72.70
1123;DHT22;548;48.778;9.252;2023-07-31T10:12:33;27.70;74.60
1123;DHT22;548;48.778;9.252;2023-07-31T10:15:01;27.30;74.70
1123;DHT22;548;48.778;9.252;2023-07-31T10:17:30;26.00;78.30
1123;DHT22;548;48.778;9.252;2023-07-31T10:19:58;25.90;79.70
1123;DHT22;548;48.778;9.252;2023-07-31T10:22:25;26.50;78.90
1123;DHT22;548;48.778;9.252;2023-07-31T10:24:52;26.60;80.10
1123;DHT22;548;48.778;9.252;2023-07-31T10:27:21;27.20;77.00
1123;DHT22;548;48.778;9.252;2023-07-31T10:29:48;26.60;77.30
1123;DHT22;548;48.778;9.252;2023-07-31T10:32:15;26.60;79.30
1123;DHT22;548;48.778;9.252;2023-07-31T10:34:45;27.10;77.20
1123;DHT22;548;48.778;9.252;2023-07-31T10:37:25;27.20;76.00
1123;DHT22;548;48.778;9.252;2023-07-31T10:39:57;27.10;75.80
1123;DHT22;548;48.778;9.252;2023-07-31T10:42:31;27.40;74.50
1123;DHT22;548;48.778;9.252;2023-07-31T10:44:59;28.20;73.10
1123;DHT22;548;48.778;9.252;2023-07-31T10:47:26;28.50;71.60
1123;DHT22;548;48.778;9.252;2023-07-31T10:50:11;28.50;72.30
1123;DHT22;548;48.778;9.252;2023-07-31T10:52:38;28.70;71.30
1123;DHT22;548;48.778;9.252;2023-07-31T10:55:16;28.70;71.80
1123;DHT22;548;48.778;9.252;2023-07-31T10:57:48;28.60;73.70
1123;DHT22;548;48.778;9.252;2023-07-31T11:00:19;29.10;71.50
1123;DHT22;548;48.778;9.252;2023-07-31T11:02:56;29.20;70.30
1123;DHT22;548;48.778;9.252;2023-07-31T11:05:44;29.40;69.90
1123;DHT22;548;48.778;9.252;2023-07-31T11:08:16;30.90;66.70
1123;DHT22;548;48.778;9.252;2023-07-31T11:10:44;31.10;64.20
1123;DHT22;548;48.778;9.252;2023-07-31T11:13:12;30.40;65.20
1123;DHT22;548;48.778;9.252;2023-07-31T11:15:39;29.50;67.50
1123;DHT22;548;48.778;9.252;2023-07-31T11:18:06;29.30;67.10
1123;DHT22;548;48.778;9.252;2023-07-31T11:20:35;29.00;67.70
1123;DHT22;548;48.778;9.252;2023-07-31T11:23:03;28.40;69.70
1123;DHT22;548;48.778;9.252;2023-07-31T11:25:30;28.30;70.20
1123;DHT22;548;48.778;9.252;2023-07-31T11:28:03;28.10;70.50
1123;DHT22;548;48.778;9.252;2023-07-31T11:30:30;27.80;72.10
1123;DHT22;548;48.778;9.252;2023-07-31T11:32:56;27.90;72.10
1123;DHT22;548;48.778;9.252;2023-07-31T11:35:23;27.90;72.20
1123;DHT22;548;48.778;9.252;2023-07-31T11:37:51;28.10;72.70
1123;DHT22;548;48.778;9.252;2023-07-31T11:40:18;28.10;72.00
1123;DHT22;548;48.778;9.252;2023-07-31T11:42:45;27.80;72.60
1123;DHT22;548;48.778;9.252;2023-07-31T11:45:12;27.70;73.40
1123;DHT22;548;48.778;9.252;2023-07-31T11:47:38;27.50;73.20
1123;DHT22;548;48.778;9.252;2023-07-31T11:50:07;27.40;73.60
1123;DHT22;548;48.778;9.252;2023-07-31T11:52:39;27.30;74.80
1123;DHT22;548;48.778;9.252;2023-07-31T11:55:08;27.00;75.40
1123;DHT22;548;48.778;9.252;2023-07-31T11:57:37;27.10;74.80
1123;DHT22;548;48.778;9.252;2023-07-31T12:00:05;27.10;73.60
1123;DHT22;548;48.778;9.252;2023-07-31T12:02:32;27.00;75.50
1123;DHT22;548;48.778;9.252;2023-07-31T12:04:59;27.40;75.30
1123;DHT22;548;48.778;9.252;2023-07-31T12:07:26;27.60;74.90
1123;DHT22;548;48.778;9.252;2023-07-31T12:09:53;28.10;73.10
1123;DHT22;548;48.778;9.252;2023-07-31T12:12:22;28.00;73.60
1123;DHT22;548;48.778;9.252;2023-07-31T12:14:49;27.60;74.40
1123;DHT22;548;48.778;9.252;2023-07-31T12:17:17;27.40;73.80
1123;DHT22;548;48.778;9.252;2023-07-31T12:19:45;27.30;77.10
1123;DHT22;548;48.778;9.252;2023-07-31T12:22:12;27.50;75.60
1123;DHT22;548;48.778;9.252;2023-07-31T12:24:40;27.70;75.40
1123;DHT22;548;48.778;9.252;2023-07-31T12:27:10;27.30;75.40
1123;DHT22;548;48.778;9.252;2023-07-31T12:29:39;26.80;77.30
1123;DHT22;548;48.778;9.252;2023-07-31T12:32:19;26.80;77.60
1123;DHT22;548;48.778;9.252;2023-07-31T12:34:46;26.80;77.60
1123;DHT22;548;48.778;9.252;2023-07-31T12:37:12;26.70;77.60
1123;DHT22;548;48.778;9.252;2023-07-31T12:39:39;27.00;76.60
1123;DHT22;548;48.778;9.252;2023-07-31T12:42:06;27.30;76.60
1123;DHT22;548;48.778;9.252;2023-07-31T12:44:33;27.20;77.00
1123;DHT22;548;48.778;9.252;2023-07-31T12:47:01;27.10;77.50
1123;DHT22;548;48.778;9.252;2023-07-31T12:49:28;27.00;77.60
1123;DHT22;548;48.778;9.252;2023-07-31T12:51:55;26.90;77.90
1123;DHT22;548;48.778;9.252;2023-07-31T12:54:21;26.80;77.30
1123;DHT22;548;48.778;9.252;2023-07-31T12:56:48;26.70;78.10
1123;DHT22;548;48.778;9.252;2023-07-31T12:59:15;26.70;78.30
1123;DHT22;548;48.778;9.252;2023-07-31T13:01:41;26.60;78.80
1123;DHT22;548;48.778;9.252;2023-07-31T13:04:09;26.60;79.50
1123;DHT22;548;48.778;9.252;2023-07-31T13:06:36;26.90;78.80
1123;DHT22;548;48.778;9.252;2023-07-31T13:09:03;26.60;78.60
1123;DHT22;548;48.778;9.252;2023-07-31T13:11:29;26.70;79.50
1123;DHT22;548;48.778;9.252;2023-07-31T13:13:56;26.70;79.80
1123;DHT22;548;48.778;9.252;2023-07-31T13:16:23;26.60;78.60
1123;DHT22;548;48.778;9.252;2023-07-31T13:18:49;26.30;80.00
1123;DHT22;548;48.778;9.252;2023-07-31T13:21:20;26.30;81.00
1123;DHT22;548;48.778;9.252;2023-07-31T13:23:47;26.40;79.40
1123;DHT22;548;48.778;9.252;2023-07-31T13:26:14;26.40;80.10
1123;DHT22;548;48.778;9.252;2023-07-31T13:28:41;26.60;80.20
1123;DHT22;548;48.778;9.252;2023-07-31T13:31:07;26.90;79.90
1123;DHT22;548;48.778;9.252;2023-07-31T13:33:36;27.60;78.90
1123;DHT22;548;48.778;9.252;2023-07-31T13:36:03;28.70;75.00
1123;DHT22;548;48.778;9.252;2023-07-31T13:38:31;29.90;72.80
1123;DHT22;548;48.778;9.252;2023-07-31T13:40:58;31.10;68.20
1123;DHT22;548;48.778;9.252;2023-07-31T13:43:25;31.90;65.50
1123;DHT22;548;48.778;9.252;2023-07-31T13:45:51;32.30;64.30
1123;DHT22;548;48.778;9.252;2023-07-31T13:48:18;32.70;61.80
1123;DHT22;548;48.778;9.252;2023-07-31T13:50:45;32.30;61.60
1123;DHT22;548;48.778;9.252;2023-07-31T13:53:11;32.30;61.60
1123;DHT22;548;48.778;9.252;2023-07-31T13:55:39;31.80;63.40
1123;DHT22;548;48.778;9.252;2023-07-31T13:58:06;31.00;64.30
1123;DHT22;548;48.778;9.252;2023-07-31T14:00:33;30.50;66.20
1123;DHT22;548;48.778;9.252;2023-07-31T14:03:00;30.20;67.50
1123;DHT22;548;48.778;9.252;2023-07-31T14:05:27;29.60;68.10
1123;DHT22;548;48.778;9.252;2023-07-31T14:07:54;29.30;69.20
1123;DHT22;548;48.778;9.252;2023-07-31T14:10:20;29.30;69.20
1123;DHT22;548;48.778;9.252;2023-07-31T14:12:48;29.50;69.10
1123;DHT22;548;48.778;9.252;2023-07-31T14:15:15;29.30;70.80
1123;DHT22;548;48.778;9.252;2023-07-31T14:17:42;29.20;70.50
1123;DHT22;548;48.778;9.252;2023-07-31T14:20:10;29.00;70.40
1123;DHT22;548;48.778;9.252;2023-07-31T14:22:38;28.70;71.90
1123;DHT22;548;48.778;9.252;2023-07-31T14:25:05;28.20;73.20
1123;DHT22;548;48.778;9.252;2023-07-31T14:27:32;28.10;74.70
1123;DHT22;548;48.778;9.252;2023-07-31T14:30:01;28.30;74.50
1123;DHT22;548;48.778;9.252;2023-07-31T14:32:27;28.40;73.50
1123;DHT22;548;48.778;9.252;2023-07-31T14:34:54;28.50;73.30
1123;DHT22;548;48.778;9.252;2023-07-31T14:37:21;28.70;72.80
1123;DHT22;548;48.778;9.252;2023-07-31T14:39:47;28.70;73.00
1123;DHT22;548;48.778;9.252;2023-07-31T14:42:15;28.80;72.50
1123;DHT22;548;48.778;9.252;2023-07-31T14:44:43;28.80;71.90
1123;DHT22;548;48.778;9.252;2023-07-31T14:47:11;28.30;73.30
1123;DHT22;548;48.778;9.252;2023-07-31T14:49:38;28.20;74.50
1123;DHT22;548;48.778;9.252;2023-07-31T14:52:05;28.40;74.30
1123;DHT22;548;48.778;9.252;2023-07-31T14:54:32;28.40;74.40
1123;DHT22;548;48.778;9.252;2023-07-31T14:56:59;28.60;74.10
1123;DHT22;548;48.778;9.252;2023-07-31T14:59:25;28.10;75.60
1123;DHT22;548;48.778;9.252;2023-07-31T15:01:52;28.40;75.50
1123;DHT22;548;48.778;9.252;2023-07-31T15:04:20;28.60;74.80
1123;DHT22;548;48.778;9.252;2023-07-31T15:06:47;28.80;75.90
1123;DHT22;548;48.778;9.252;2023-07-31T15:09:14;28.80;74.80
1123;DHT22;548;48.778;9.252;2023-07-31T15:11:41;29.20;74.00
1123;DHT22;548;48.778;9.252;2023-07-31T15:14:07;29.50;73.50
1123;DHT22;548;48.778;9.252;2023-07-31T15:16:34;29.40;73.70
1123;DHT22;548;48.778;9.252;2023-07-31T15:19:01;29.10;71.40
1123;DHT22;548;48.778;9.252;2023-07-31T15:21:29;28.80;71.10
1123;DHT22;548;48.778;9.252;2023-07-31T15:23:56;29.10;71.90
1123;DHT22;548;48.778;9.252;2023-07-31T15:26:23;29.20;71.50
1123;DHT22;548;48.778;9.252;2023-07-31T15:28:56;29.00;70.90
1123;DHT22;548;48.778;9.252;2023-07-31T15:31:22;29.10;70.20
1123;DHT22;548;48.778;9.252;2023-07-31T15:33:49;29.00;71.00
1123;DHT22;548;48.778;9.252;2023-07-31T15:36:16;29.10;70.50
1123;DHT22;548;48.778;9.252;2023-07-31T15:38:44;29.30;70.90
1123;DHT22;548;48.778;9.252;2023-07-31T15:41:11;29.20;69.80
1123;DHT22;548;48.778;9.252;2023-07-31T15:43:38;29.20;70.20
1123;DHT22;548;48.778;9.252;2023-07-31T15:46:04;28.90;70.50
1123;DHT22;548;48.778;9.252;2023-07-31T15:48:31;28.80;71.70
1123;DHT22;548;48.778;9.252;2023-07-31T15:50:58;28.50;71.90
1123;DHT22;548;48.778;9.252;2023-07-31T15:53:26;28.10;72.00
1123;DHT22;548;48.778;9.252;2023-07-31T15:55:54;27.90;72.80
1123;DHT22;548;48.778;9.252;2023-07-31T15:58:22;27.90;73.10
1123;DHT22;548;48.778;9.252;2023-07-31T16:00:49;28.00;73.70
1123;DHT22;548;48.778;9.252;2023-07-31T16:03:15;27.80;73.40
1123;DHT22;548;48.778;9.252;2023-07-31T16:05:42;27.40;74.60
1123;DHT22;548;48.778;9.252;2023-07-31T16:08:09;27.20;75.90
1123;DHT22;548;48.778;9.252;2023-07-31T16:10:35;27.20;75.20
1123;DHT22;548;48.778;9.252;2023-07-31T16:13:03;27.20;75.50
1123;DHT22;548;48.778;9.252;2023-07-31T16:15:30;27.20;76.20
1123;DHT22;548;48.778;9.252;2023-07-31T16:17:57;27.00;76.80